Time;durP1;ratioP1;P1;durP2;ratioP2;P2;SDS_P1;SDS_P2;PMS_P1;PMS_P2;Temp;Humidity;BMP_temperature;BMP_pressure;BME280_temperature;BME280_humidity;BME280_pressure;Samples;Min_cycle;Max_cycle;Signal;HPM_P1;HPM_P2
2023/12/12 00:02:34;;;;;;;3.72;2.00;;;17.50;64.50;;;;;;4885863;29;20636;-87
2023/12/12 00:05:09;;;;;;;2.50;1.90;;;17.40;64.60;;;;;;4915914;29;20237;-87
2023/12/12 00:07:41;;;;;;;3.25;2.00;;;17.40;64.40;;;;;;4900438;29;20185;-87
2023/12/12 00:10:24;;;;;;;2.78;1.92;;;17.30;64.50;;;;;;4910561;29;20186;-86
2023/12/12 00:12:58;;;;;;;2.85;1.95;;;17.40;64.60;;;;;;4881043;29;20235;-85
2023/12/12 00:15:28;;;;;;;3.50;2.20;;;17.40;64.60;;;;;;4860204;29;20184;-88
2023/12/12 00:17:54;;;;;;;3.38;2.20;;;17.40;64.50;;;;;;4868960;29;20240;-87
2023/12/12 01:15:09;;;;;;;2.92;2.03;;;17.30;64.30;;;;;;4767181;23;20249;-86
2023/12/12 01:17:39;;;;;;;4.43;2.20;;;17.30;64.50;;;;;;4918121;29;20202;-86
2023/12/12 01:20:09;;;;;;;2.60;2.00;;;17.30;64.50;;;;;;4877686;29;20208;-86
2023/12/12 01:22:35;;;;;;;3.45;2.10;;;17.20;64.50;;;;;;4857459;29;20200;-86
2023/12/12 01:28:26;;;;;;;3.25;2.28;;;17.30;64.30;;;;;;4957445;23;20242;-85
2023/12/12 01:30:54;;;;;;;3.38;2.42;;;17.30;64.40;;;;;;4885232;29;20182;-86
2023/12/12 01:38:31;;;;;;;3.70;2.25;;;17.30;64.10;;;;;;5999587;23;20275;-87
2023/12/12 01:41:00;;;;;;;2.60;2.10;;;17.30;64.20;;;;;;4913771;29;20195;-87
2023/12/12 01:43:34;;;;;;;4.10;2.28;;;17.30;64.20;;;;;;4878445;29;20718;-86
2023/12/12 01:46:06;;;;;;;3.72;2.28;;;17.30;64.20;;;;;;4895589;29;20195;-87
2023/12/12 01:48:39;;;;;;;3.65;2.47;;;17.30;64.30;;;;;;4863995;29;20195;-87
2023/12/12 01:51:10;;;;;;;3.97;2.15;;;17.20;64.00;;;;;;4894669;29;20168;-87
2023/12/12 01:53:43;;;;;;;2.92;2.15;;;17.30;64.10;;;;;;4894807;29;20191;-88
2023/12/12 01:56:19;;;;;;;3.58;2.50;;;17.30;64.20;;;;;;4863241;29;20250;-87
2023/12/12 01:58:54;;;;;;;5.10;2.20;;;17.30;64.20;;;;;;4854525;29;20205;-87
2023/12/12 02:01:29;;;;;;;2.90;2.10;;;17.30;64.20;;;;;;4808551;29;20196;-87
2023/12/12 02:03:59;;;;;;;3.20;2.13;;;17.30;64.00;;;;;;4805090;29;20709;-87
2023/12/12 02:06:32;;;;;;;3.35;2.00;;;17.30;64.10;;;;;;4819266;29;20191;-87
2023/12/12 02:09:05;;;;;;;3.38;2.17;;;17.20;64.20;;;;;;4831308;29;20211;-87
2023/12/12 02:11:35;;;;;;;3.08;2.08;;;17.30;64.30;;;;;;4853979;29;20185;-87
2023/12/12 02:14:05;;;;;;;2.60;2.15;;;17.20;64.10;;;;;;4836581;29;20201;-87
2023/12/12 02:44:53;;;;;;;4.55;2.05;;;17.20;64.00;;;;;;5623168;23;20237;-86
2023/12/12 03:36:22;;;;;;;3.58;2.05;;;17.10;63.90;;;;;;5390875;23;20226;-86
2023/12/12 03:38:59;;;;;;;3.42;2.60;;;17.10;63.80;;;;;;4917056;29;20178;-88
2023/12/12 03:41:29;;;;;;;3.45;2.20;;;17.10;63.80;;;;;;4912783;29;20197;-86
2023/12/12 03:44:02;;;;;;;5.10;2.30;;;17.10;63.50;;;;;;4910898;29;20217;-86
2023/12/12 03:46:31;;;;;;;6.00;2.63;;;17.10;63.60;;;;;;4921180;29;20189;-86
2023/12/12 04:30:23;;;;;;;3.42;2.40;;;17.10;63.70;;;;;;5120639;23;20245;-86
2023/12/12 04:32:54;;;;;;;3.22;2.22;;;17.10;63.80;;;;;;4914900;29;20179;-86
2023/12/12 05:47:18;;;;;;;4.07;2.17;;;17.00;63.30;;;;;;5690575;23;20301;-87
2023/12/12 05:50:02;;;;;;;3.65;2.70;;;17.10;63.50;;;;;;4917876;29;20237;-87
2023/12/12 05:52:32;;;;;;;3.80;2.35;;;17.00;63.20;;;;;;4935157;29;20193;-87
2023/12/12 05:54:59;;;;;;;4.25;2.60;;;17.00;63.20;;;;;;4920283;29;20174;-87
2023/12/12 06:22:20;;;;;;;3.95;2.55;;;17.00;63.00;;;;;;4961422;23;20244;-87
2023/12/12 06:25:37;;;;;;;;;;;;;;;;;;;;;
2023/12/12 06:44:38;;;;;;;3.88;2.70;;;17.00;63.10;;;;;;5700795;23;20248;-86
2023/12/12 06:47:20;;;;;;;3.83;2.80;;;17.00;63.10;;;;;;4918259;29;20188;-86
2023/12/12 06:49:56;;;;;;;4.85;2.67;;;17.00;63.20;;;;;;4934696;29;20637;-86
2023/12/12 06:52:22;;;;;;;4.20;2.75;;;17.00;63.20;;;;;;4917201;29;20173;-86
2023/12/12 06:54:49;;;;;;;4.20;2.50;;;17.00;63.20;;;;;;4917218;29;20174;-86
2023/12/12 06:57:23;;;;;;;3.42;2.20;;;16.90;63.20;;;;;;4885984;29;20211;-86
2023/12/12 06:59:58;;;;;;;3.97;2.40;;;17.00;63.00;;;;;;4885066;29;20214;-87
2023/12/12 07:02:24;;;;;;;4.55;2.88;;;17.00;63.10;;;;;;4857477;29;20266;-87
2023/12/12 07:07:27;;;;;;;3.83;2.47;;;17.00;63.20;;;;;;4928737;29;20242;-87
2023/12/12 07:10:06;;;;;;;4.07;2.35;;;17.00;63.10;;;;;;4897648;29;20182;-86
2023/12/12 07:12:36;;;;;;;3.45;2.30;;;16.90;62.90;;;;;;4883987;29;20186;-86
2023/12/12 07:15:07;;;;;;;3.53;2.50;;;17.00;62.50;;;;;;4898886;29;20645;-86
2023/12/12 07:17:57;;;;;;;4.00;2.63;;;17.00;62.50;;;;;;4878367;29;20544;-85
2023/12/12 07:20:30;;;;;;;4.15;2.70;;;17.10;61.60;;;;;;4900954;29;20192;-86
2023/12/12 07:22:56;;;;;;;3.78;2.47;;;17.10;61.90;;;;;;4871676;29;20188;-86
2023/12/12 07:25:23;;;;;;;3.58;2.55;;;17.10;61.90;;;;;;4857473;29;20275;-86
2023/12/12 07:27:53;;;;;;;3.85;2.65;;;17.10;61.20;;;;;;4842318;29;20188;-87
2023/12/12 07:30:23;;;;;;;3.58;2.70;;;17.20;61.50;;;;;;4841858;29;20293;-86
2023/12/12 07:33:02;;;;;;;4.60;2.53;;;17.10;61.70;;;;;;4857500;29;20180;-86
2023/12/12 07:35:30;;;;;;;4.18;2.78;;;17.20;61.10;;;;;;4854292;29;20324;-86
2023/12/12 07:37:57;;;;;;;2.70;2.10;;;17.20;61.20;;;;;;4859839;29;20207;-86
2023/12/12 07:40:30;;;;;;;4.40;2.53;;;17.20;61.60;;;;;;4870793;29;20174;-86
2023/12/12 07:42:58;;;;;;;3.47;2.45;;;17.20;61.50;;;;;;4856914;29;20184;-86
2023/12/12 07:47:57;;;;;;;3.45;2.70;;;17.10;61.90;;;;;;4961221;29;20714;-87
2023/12/12 09:08:53;;;;;;;3.05;2.20;;;17.50;60.10;;;;;;5203872;23;20228;-86
2023/12/12 09:11:23;;;;;;;3.05;2.17;;;17.50;59.40;;;;;;4913702;29;20195;-87
2023/12/12 09:13:50;;;;;;;3.28;2.20;;;17.50;59.50;;;;;;4894322;29;20194;-87
2023/12/12 09:16:19;;;;;;;3.60;2.30;;;17.50;59.40;;;;;;4869901;29;20183;-87
2023/12/12 09:18:45;;;;;;;3.28;2.33;;;17.60;58.80;;;;;;4879133;29;20241;-84
2023/12/12 09:21:16;;;;;;;4.95;2.30;;;17.60;58.90;;;;;;4890911;29;20193;-83
2023/12/12 09:23:44;;;;;;;2.55;2.10;;;17.70;58.10;;;;;;4879784;29;20202;-85
2023/12/12 09:26:18;;;;;;;3.65;2.10;;;17.60;58.90;;;;;;4912893;29;20249;-88
2023/12/12 09:28:51;;;;;;;3.95;2.70;;;17.60;59.00;;;;;;4898053;29;20193;-86
2023/12/12 09:31:29;;;;;;;3.17;2.35;;;17.70;58.30;;;;;;4893394;29;20192;-87
2023/12/12 09:33:57;;;;;;;2.85;2.10;;;17.70;58.90;;;;;;4894763;29;20180;-84
2023/12/12 09:36:24;;;;;;;3.28;2.38;;;17.70;58.20;;;;;;4908488;29;20223;-86
2023/12/12 09:38:57;;;;;;;3.42;2.47;;;17.70;58.70;;;;;;4894996;29;20254;-85
2023/12/12 09:43:58;;;;;;;3.17;2.22;;;17.70;59.10;;;;;;5399358;23;20244;-84
2023/12/12 09:46:33;;;;;;;3.50;2.42;;;17.70;58.20;;;;;;4940423;29;20225;-86
2023/12/12 09:49:01;;;;;;;3.38;2.10;;;17.80;58.60;;;;;;4915819;29;20208;-86
2023/12/12 09:51:28;;;;;;;3.17;2.30;;;17.70;59.30;;;;;;4899920;29;20182;-86
2023/12/12 09:54:00;;;;;;;3.33;2.30;;;17.70;58.70;;;;;;4897552;29;20188;-85
2023/12/12 09:56:36;;;;;;;3.50;2.20;;;17.70;58.40;;;;;;4915496;29;20195;-86
2023/12/12 09:59:56;;;;;;;2.92;2.22;;;17.80;59.20;;;;;;4915181;29;20215;-86
2023/12/12 10:05:08;;;;;;;3.45;2.15;;;17.80;58.40;;;;;;5846705;23;20236;-85
2023/12/12 10:07:40;;;;;;;2.97;2.13;;;17.80;59.10;;;;;;4908251;29;20279;-84
2023/12/12 10:10:25;;;;;;;2.80;2.05;;;17.80;58.20;;;;;;4882207;29;20180;-85
2023/12/12 10:12:59;;;;;;;2.42;1.88;;;17.80;58.30;;;;;;4848217;29;20267;-86
2023/12/12 10:15:35;;;;;;;4.10;2.25;;;17.80;58.70;;;;;;4848129;29;20185;-85
2023/12/12 10:18:25;;;;;;;3.95;2.63;;;17.80;58.60;;;;;;4866185;29;20208;-86
2023/12/12 10:21:13;;;;;;;4.10;2.30;;;17.80;59.30;;;;;;4862306;29;20189;-86
2023/12/12 10:23:46;;;;;;;5.47;2.22;;;17.70;58.80;;;;;;4842152;29;20200;-84
2023/12/12 10:26:17;;;;;;;3.35;2.20;;;17.80;58.50;;;;;;4827596;29;20200;-87
2023/12/12 10:28:44;;;;;;;3.30;2.15;;;17.80;58.60;;;;;;4828456;29;20252;-86
2023/12/12 10:31:34;;;;;;;3.08;2.30;;;17.80;58.80;;;;;;4828302;29;20208;-85
2023/12/12 10:34:06;;;;;;;2.92;2.25;;;17.80;58.90;;;;;;4832723;29;20177;-86
2023/12/12 12:24:45;;;;;;;3.10;2.00;;;17.80;58.70;;;;;;4942611;29;20247;-86
2023/12/12 12:27:16;;;;;;;3.75;2.20;;;17.80;58.70;;;;;;4917964;29;20189;-86
2023/12/12 12:30:37;;;;;;;2.10;1.70;;;17.80;58.60;;;;;;4889134;29;20194;-86
2023/12/12 12:33:05;;;;;;;2.90;2.03;;;17.70;59.40;;;;;;4929887;29;20557;-86
2023/12/12 12:36:10;;;;;;;3.13;2.10;;;17.80;58.60;;;;;;4924654;29;20187;-87
2023/12/12 13:36:57;;;;;;;3.67;2.00;;;17.80;57.70;;;;;;4926577;29;20225;-86
2023/12/12 13:39:23;;;;;;;2.78;1.80;;;17.70;58.30;;;;;;4892957;29;20194;-83
2023/12/12 13:42:04;;;;;;;3.42;2.17;;;17.80;57.90;;;;;;4895159;29;20193;-84
2023/12/12 13:45:36;;;;;;;4.35;1.98;;;17.80;57.70;;;;;;4897942;29;20179;-86
2023/12/12 13:49:06;;;;;;;2.10;1.73;;;17.90;57.60;;;;;;4837152;29;20206;-87
2023/12/12 13:51:47;;;;;;;4.80;1.80;;;17.90;57.40;;;;;;4794244;29;20209;-86
2023/12/12 13:54:21;;;;;;;3.35;2.03;;;17.90;57.50;;;;;;4815810;29;20181;-89
2023/12/12 13:56:50;;;;;;;3.50;2.15;;;17.90;57.40;;;;;;4814931;29;20648;-87
2023/12/12 13:59:21;;;;;;;2.97;2.00;;;17.90;57.10;;;;;;4775823;30;20332;-87
2023/12/12 14:01:54;;;;;;;2.58;1.92;;;17.90;57.60;;;;;;4794693;30;20271;-86
2023/12/12 14:04:45;;;;;;;4.10;2.00;;;17.90;57.30;;;;;;4777985;30;20204;-89
2023/12/12 14:07:40;;;;;;;3.65;1.80;;;17.90;57.10;;;;;;4762733;30;20203;-84
2023/12/12 14:10:24;;;;;;;2.92;1.70;;;17.80;57.30;;;;;;4742931;30;20285;-86
2023/12/12 14:13:00;;;;;;;2.80;1.90;;;17.80;57.40;;;;;;4743670;30;20235;-86
2023/12/12 14:15:44;;;;;;;4.35;1.80;;;17.90;56.80;;;;;;4755687;30;20184;-86
2023/12/12 14:18:22;;;;;;;4.63;2.13;;;17.90;57.00;;;;;;4784748;30;20225;-87
2023/12/12 14:21:32;;;;;;;2.50;1.98;;;17.80;57.60;;;;;;4766669;30;20262;-85
2023/12/12 14:24:12;;;;;;;3.85;1.80;;;17.80;56.70;;;;;;4758048;29;20194;-85
2023/12/12 14:26:37;;;;;;;7.50;2.03;;;17.90;57.30;;;;;;4834263;29;20184;-87
2023/12/12 14:29:13;;;;;;;4.03;1.88;;;17.90;57.30;;;;;;4859604;29;20204;-86
2023/12/12 14:32:10;;;;;;;4.47;2.10;;;17.80;57.00;;;;;;4872208;29;20177;-86
2023/12/12 14:34:45;;;;;;;5.35;2.00;;;17.90;57.60;;;;;;4790035;30;20196;-83
2023/12/12 14:37:15;;;;;;;5.03;1.80;;;17.80;57.30;;;;;;4794938;29;20254;-84
2023/12/12 14:39:46;;;;;;;7.88;2.03;;;17.80;57.10;;;;;;4810220;29;20195;-84
2023/12/12 14:42:12;;;;;;;3.40;1.80;;;17.80;57.30;;;;;;4811308;29;20190;-85
2023/12/12 14:44:38;;;;;;;4.38;1.92;;;17.90;57.70;;;;;;4809051;29;20691;-84
2023/12/12 14:47:23;;;;;;;;;;;;;;;;;;;;;
2023/12/12 14:49:50;;;;;;;5.05;1.75;;;17.80;57.90;;;;;;4803424;29;20213;-83
2023/12/12 14:52:17;;;;;;;4.10;2.15;;;17.80;58.20;;;;;;4818740;29;20638;-86
2023/12/12 14:55:16;;;;;;;4.07;1.88;;;17.80;57.90;;;;;;4824269;29;20225;-85
2023/12/12 14:57:48;;;;;;;4.10;2.00;;;17.80;57.90;;;;;;4848513;29;20321;-86
2023/12/12 15:00:23;;;;;;;3.95;2.20;;;17.80;58.00;;;;;;4850394;29;20188;-85
2023/12/12 15:02:53;;;;;;;3.22;1.60;;;17.80;57.60;;;;;;4865387;29;20257;-86
2023/12/12 15:05:29;;;;;;;2.95;1.92;;;17.80;57.70;;;;;;4847917;29;20189;-84
2023/12/12 15:07:55;;;;;;;2.47;1.50;;;17.90;57.40;;;;;;4847130;29;20192;-87
2023/12/12 15:12:50;;;;;;;6.07;2.08;;;17.90;57.30;;;;;;5199290;23;20244;-85
2023/12/12 15:15:25;;;;;;;2.95;1.90;;;17.80;56.80;;;;;;4885080;29;20192;-84
2023/12/12 15:18:15;;;;;;;3.00;1.75;;;18.00;57.10;;;;;;4886849;29;20388;-85
2023/12/12 15:20:44;;;;;;;4.00;2.00;;;18.00;57.70;;;;;;4813245;29;20336;-85
2023/12/12 15:24:10;;;;;;;;;;;;;;;;;;;;;
2023/12/12 15:26:36;;;;;;;3.95;1.88;;;17.90;57.10;;;;;;4796429;29;20259;-83
2023/12/12 15:29:06;;;;;;;4.57;1.85;;;18.00;57.10;;;;;;4803397;29;20265;-85
2023/12/12 15:31:31;;;;;;;6.05;1.73;;;18.00;57.30;;;;;;4824428;29;20231;-84
2023/12/12 15:34:15;;;;;;;2.50;1.88;;;17.90;56.90;;;;;;4814232;29;20524;-86
2023/12/12 15:37:10;;;;;;;3.13;1.95;;;18.00;56.90;;;;;;4781357;29;20300;-86
2023/12/12 15:40:00;;;;;;;3.80;2.03;;;17.90;56.90;;;;;;4796993;29;20218;-86
2023/12/12 15:42:45;;;;;;;4.97;1.98;;;18.00;56.70;;;;;;4743141;30;20197;-85
2023/12/12 15:45:20;;;;;;;4.47;1.90;;;18.00;56.40;;;;;;4692668;30;20225;-84
2023/12/12 15:53:51;;;;;;;6.70;1.98;;;18.10;56.50;;;;;;4752323;30;20190;-85
2023/12/12 15:56:38;;;;;;;3.75;1.90;;;18.10;57.00;;;;;;4742651;30;20284;-85
2023/12/12 15:59:44;;;;;;;3.17;1.73;;;18.00;57.60;;;;;;4722952;30;20333;-85
2023/12/12 16:02:49;;;;;;;4.53;1.85;;;18.10;57.10;;;;;;4688229;30;20208;-84
2023/12/12 16:05:19;;;;;;;3.38;1.70;;;18.00;56.30;;;;;;4710120;30;20194;-85
2023/12/12 16:08:09;;;;;;;3.03;1.83;;;18.10;56.60;;;;;;4696470;30;20198;-86
2023/12/12 16:27:49;;;;;;;3.60;1.55;;;18.10;58.60;;;;;;4591048;31;20723;-85
2023/12/12 16:30:20;;;;;;;4.47;1.88;;;18.20;58.40;;;;;;4593281;31;20356;-86
2023/12/12 16:32:59;;;;;;;5.93;2.20;;;18.10;58.10;;;;;;4574250;31;20200;-86
2023/12/12 16:35:59;;;;;;;;;;;;;;;;;;;;;
2023/12/12 16:42:59;;;;;;;3.13;1.80;;;18.10;58.20;;;;;;4662146;30;20350;-86
2023/12/12 16:48:53;;;;;;;6.55;2.00;;;18.20;58.40;;;;;;4582134;31;20207;-85
2023/12/12 16:51:25;;;;;;;4.22;2.15;;;18.20;58.90;;;;;;4619938;31;20293;-87
2023/12/12 16:53:51;;;;;;;4.95;2.00;;;18.20;58.50;;;;;;4628714;31;20198;-87
2023/12/12 16:56:34;;;;;;;5.85;1.70;;;18.20;58.40;;;;;;4642826;30;20201;-86
2023/12/12 16:59:22;;;;;;;;;;;;;;;;;;;;;
2023/12/12 17:02:07;;;;;;;8.43;1.90;;;18.20;59.00;;;;;;4675039;30;20740;-85
2023/12/12 17:04:57;;;;;;;5.40;2.00;;;18.20;59.30;;;;;;4676617;30;20202;-86
2023/12/12 17:07:44;;;;;;;4.70;1.95;;;18.20;59.60;;;;;;4705121;30;20579;-87
2023/12/12 17:10:34;;;;;;;;;;;;;;;;;;;;;
2023/12/12 17:13:14;;;;;;;6.13;2.00;;;18.30;59.70;;;;;;4646128;30;20327;-85
2023/12/12 17:18:37;;;;;;;5.30;1.98;;;18.30;59.60;;;;;;4689510;30;20227;-85
2023/12/12 17:21:30;;;;;;;;;;;;;;;;;;;;;
2023/12/12 17:24:00;;;;;;;4.18;1.95;;;18.30;60.00;;;;;;4718786;30;20272;-85
2023/12/12 17:26:43;;;;;;;;;;;;;;;;;;;;;
2023/12/12 17:29:26;;;;;;;;;;;;;;;;;;;;;
2023/12/12 17:32:00;;;;;;;7.10;2.38;;;18.20;61.00;;;;;;4744829;30;20708;-86
2023/12/12 17:34:40;;;;;;;;;;;;;;;;;;;;;
2023/12/12 17:55:34;;;;;;;4.30;1.80;;;18.50;60.80;;;;;;4691012;30;20224;-82
2023/12/12 17:57:38;;;;;;;4.60;1.50;;;18.40;59.50;;;;;;4772994;30;20206;-81
2023/12/12 18:00:11;;;;;;;3.45;2.08;;;18.50;60.00;;;;;;4779567;30;20208;-84
2023/12/12 18:02:41;;;;;;;4.13;1.92;;;18.50;60.20;;;;;;4795707;29;20194;-81
2023/12/12 18:05:26;;;;;;;3.63;2.00;;;18.50;60.40;;;;;;4842990;29;20178;-82
2023/12/12 18:08:18;;;;;;;4.47;2.10;;;18.50;60.90;;;;;;4866747;29;20194;-82
2023/12/12 18:11:22;;;;;;;;;;;;;;;;;;;;;
2023/12/12 18:13:49;;;;;;;6.53;1.98;;;18.60;62.50;;;;;;4791701;29;20236;-83
2023/12/12 18:16:42;;;;;;;;;;;;;;;;;;;;;
2023/12/12 18:19:24;;;;;;;8.00;1.88;;;18.70;61.80;;;;;;4787804;29;20237;-83
2023/12/12 18:21:53;;;;;;;4.55;1.80;;;18.70;61.50;;;;;;4794138;29;20179;-83
2023/12/12 18:24:24;;;;;;;5.70;1.70;;;18.70;60.50;;;;;;4823054;29;20201;-84
2023/12/12 18:26:53;;;;;;;4.90;1.70;;;18.70;60.60;;;;;;4822640;29;20195;-84
2023/12/12 18:29:25;;;;;;;2.92;1.80;;;18.70;61.60;;;;;;4824019;29;20985;-82
2023/12/12 18:31:56;;;;;;;4.93;1.70;;;18.70;60.80;;;;;;4806323;29;20597;-83
2023/12/12 18:34:28;;;;;;;5.20;1.67;;;18.70;61.40;;;;;;4806347;29;20218;-83
2023/12/12 18:36:56;;;;;;;4.32;1.52;;;18.60;60.50;;;;;;4761684;29;20194;-83
2023/12/12 18:39:22;;;;;;;4.45;1.95;;;18.70;59.50;;;;;;4777519;29;20187;-82
2023/12/12 18:41:51;;;;;;;2.97;1.70;;;18.80;60.40;;;;;;4789494;29;20183;-81
2023/12/12 18:44:28;;;;;;;4.60;1.65;;;18.80;59.40;;;;;;4826790;29;20668;-82
2023/12/12 18:46:54;;;;;;;4.55;1.80;;;18.80;59.80;;;;;;4825628;29;20170;-82
2023/12/12 18:49:22;;;;;;;1.90;1.55;;;18.70;60.20;;;;;;4843620;29;20185;-81
2023/12/12 18:51:54;;;;;;;5.88;1.70;;;18.70;61.10;;;;;;4883344;29;20226;-82
2023/12/12 18:54:19;;;;;;;2.92;1.48;;;18.70;61.20;;;;;;4864746;29;20362;-81
2023/12/12 18:56:52;;;;;;;3.78;1.95;;;18.70;60.50;;;;;;4861369;29;20558;-82
2023/12/12 18:59:18;;;;;;;3.30;1.90;;;18.70;61.10;;;;;;4846118;29;20195;-83
2023/12/12 19:01:43;;;;;;;4.18;1.90;;;18.70;61.20;;;;;;4880219;29;21486;-82
2023/12/12 19:04:10;;;;;;;2.42;1.67;;;18.70;61.40;;;;;;4898152;29;20246;-82
2023/12/12 19:06:36;;;;;;;3.50;1.77;;;18.70;61.20;;;;;;4855018;29;20194;-81
2023/12/12 19:09:04;;;;;;;3.67;1.75;;;18.80;61.80;;;;;;4894264;29;20275;-80
2023/12/12 19:11:37;;;;;;;2.58;1.80;;;18.70;62.20;;;;;;4879130;29;20262;-84
2023/12/12 19:14:06;;;;;;;4.25;2.03;;;18.70;61.70;;;;;;4862558;29;20227;-83
2023/12/12 19:16:35;;;;;;;4.07;1.90;;;18.70;62.20;;;;;;4879323;29;20198;-83
2023/12/12 19:19:02;;;;;;;7.00;1.90;;;18.60;61.00;;;;;;4893013;29;20600;-81
2023/12/12 19:21:27;;;;;;;6.05;1.67;;;18.60;62.10;;;;;;4896525;29;20171;-82
2023/12/12 19:23:53;;;;;;;6.22;1.80;;;18.60;62.10;;;;;;4867712;29;20558;-82
2023/12/12 19:26:19;;;;;;;3.58;1.58;;;18.60;63.00;;;;;;4883293;29;20174;-81
2023/12/12 19:28:46;;;;;;;3.97;1.70;;;18.60;62.90;;;;;;4916279;29;20190;-85
2023/12/12 19:31:12;;;;;;;4.25;1.67;;;18.50;61.80;;;;;;4919868;29;20178;-83
2023/12/12 19:33:38;;;;;;;3.83;1.50;;;18.50;63.10;;;;;;4918961;29;20208;-82
2023/12/12 19:36:05;;;;;;;8.77;1.73;;;18.50;63.30;;;;;;4904069;29;20309;-84
2023/12/12 19:38:32;;;;;;;4.97;1.85;;;18.50;63.10;;;;;;4911505;29;20226;-83
2023/12/12 19:40:58;;;;;;;4.13;1.80;;;18.50;62.70;;;;;;4886403;29;20202;-84
2023/12/12 19:43:24;;;;;;;5.72;1.90;;;18.50;62.20;;;;;;4917963;29;20158;-82
2023/12/12 19:45:50;;;;;;;3.47;1.70;;;18.50;62.60;;;;;;4917779;29;20177;-82
2023/12/12 19:48:16;;;;;;;4.35;1.92;;;18.50;63.60;;;;;;4919283;29;20249;-83
2023/12/12 19:50:44;;;;;;;3.92;1.75;;;18.50;63.80;;;;;;4905747;29;20166;-83
2023/12/12 19:53:10;;;;;;;3.22;1.80;;;18.50;63.30;;;;;;4885290;29;20254;-82
2023/12/12 19:55:35;;;;;;;4.45;1.60;;;18.50;62.70;;;;;;4918393;29;20622;-83
2023/12/12 19:58:01;;;;;;;3.85;1.67;;;18.50;63.00;;;;;;4910218;29;20197;-83
2023/12/12 20:00:28;;;;;;;3.83;1.73;;;18.50;61.70;;;;;;4921634;29;20162;-83
2023/12/12 20:02:55;;;;;;;2.70;1.67;;;18.40;62.10;;;;;;4939896;29;20241;-84
2023/12/12 20:05:21;;;;;;;3.08;1.70;;;18.50;61.80;;;;;;4926871;29;20170;-83
2023/12/12 20:07:47;;;;;;;4.82;2.13;;;18.50;61.00;;;;;;4926914;29;20154;-83
2023/12/12 20:10:15;;;;;;;4.57;2.20;;;18.50;61.10;;;;;;4930685;29;20169;-83
2023/12/12 20:12:45;;;;;;;5.43;2.10;;;18.40;61.10;;;;;;4926608;29;20178;-83
2023/12/12 20:15:12;;;;;;;2.90;1.80;;;18.40;61.90;;;;;;4895372;29;20292;-83
2023/12/12 20:17:38;;;;;;;5.25;1.80;;;18.40;61.60;;;;;;4924420;29;20213;-83
2023/12/12 20:20:04;;;;;;;3.13;1.80;;;18.40;62.40;;;;;;4924424;29;20154;-83
2023/12/12 20:22:31;;;;;;;2.75;1.60;;;18.40;62.70;;;;;;4925771;29;20166;-83
2023/12/12 20:24:56;;;;;;;2.80;1.75;;;18.30;62.40;;;;;;4924894;29;20158;-83
2023/12/12 20:27:29;;;;;;;5.47;1.77;;;18.30;62.40;;;;;;4927812;29;20544;-84
2023/12/12 20:29:55;;;;;;;4.93;1.88;;;18.30;63.00;;;;;;4885759;29;20213;-83
2023/12/12 20:32:21;;;;;;;3.35;1.70;;;18.30;62.50;;;;;;4920039;29;20658;-84
2023/12/12 20:34:47;;;;;;;2.92;1.70;;;18.40;62.50;;;;;;4903995;29;20254;-84
2023/12/12 20:37:13;;;;;;;4.22;1.58;;;18.40;62.70;;;;;;4900928;29;20182;-84
2023/12/12 20:39:38;;;;;;;2.97;2.00;;;18.30;63.00;;;;;;4922851;29;20181;-83
2023/12/12 20:42:05;;;;;;;2.95;1.90;;;18.30;62.80;;;;;;4937772;29;20162;-83
2023/12/12 20:44:33;;;;;;;3.92;1.77;;;18.40;62.30;;;;;;4906850;29;20282;-83
2023/12/12 20:47:00;;;;;;;3.15;1.83;;;18.40;62.70;;;;;;4934552;29;20664;-84
2023/12/12 20:51:52;;;;;;;2.58;1.70;;;18.30;63.40;;;;;;4929142;23;20286;-84
2023/12/12 20:54:23;;;;;;;4.63;1.80;;;18.30;64.10;;;;;;4918990;29;20179;-84
2023/12/12 20:56:50;;;;;;;4.63;2.00;;;18.30;64.10;;;;;;4911602;29;20220;-83
2023/12/12 20:59:15;;;;;;;2.28;1.60;;;18.20;63.60;;;;;;4941095;29;20261;-84
2023/12/12 21:01:46;;;;;;;2.40;1.65;;;18.30;62.30;;;;;;4913202;29;20588;-84
2023/12/12 21:04:13;;;;;;;4.20;1.60;;;18.30;63.70;;;;;;4934773;29;20205;-83
2023/12/12 21:06:38;;;;;;;2.17;1.60;;;18.30;64.10;;;;;;4938540;29;20179;-83
2023/12/12 21:09:05;;;;;;;3.88;1.60;;;18.10;64.60;;;;;;4931735;29;20246;-84
2023/12/12 21:11:30;;;;;;;1.90;1.55;;;18.10;64.50;;;;;;4920947;29;20173;-84
2023/12/12 21:13:58;;;;;;;3.38;1.60;;;18.10;64.40;;;;;;4884761;29;20183;-84
2023/12/12 21:16:25;;;;;;;3.55;1.70;;;18.10;64.60;;;;;;4913036;29;20202;-83
2023/12/12 21:18:51;;;;;;;3.88;1.80;;;18.10;64.90;;;;;;4917286;29;20347;-83
2023/12/12 21:21:17;;;;;;;2.40;1.70;;;18.10;64.50;;;;;;4924544;23;21018;-83
2023/12/12 21:23:42;;;;;;;2.83;1.58;;;18.00;64.70;;;;;;4919419;29;20159;-83
2023/12/12 21:26:08;;;;;;;2.63;1.92;;;18.00;64.60;;;;;;4934086;29;20166;-83
2023/12/12 21:28:35;;;;;;;2.40;1.70;;;18.10;65.00;;;;;;4930880;29;20197;-84
2023/12/12 21:31:02;;;;;;;4.63;1.73;;;18.10;65.20;;;;;;4919832;23;20169;-83
2023/12/12 21:33:27;;;;;;;3.50;2.15;;;18.00;64.60;;;;;;4924318;29;20161;-84
2023/12/12 21:35:53;;;;;;;3.42;1.90;;;18.00;65.00;;;;;;4932144;29;20187;-83
2023/12/12 21:38:20;;;;;;;2.50;1.60;;;18.00;65.00;;;;;;4937782;29;20189;-82
2023/12/12 21:43:13;;;;;;;3.33;1.92;;;18.00;64.90;;;;;;4949146;23;20234;-83
2023/12/12 21:45:39;;;;;;;2.92;2.17;;;18.00;64.60;;;;;;4934443;29;20590;-84
2023/12/12 21:48:06;;;;;;;3.00;1.83;;;18.00;64.90;;;;;;4919202;29;20858;-84
2023/12/12 21:50:32;;;;;;;2.55;1.70;;;18.00;64.60;;;;;;4903739;29;20545;-84
2023/12/12 21:52:58;;;;;;;4.75;1.83;;;18.00;64.60;;;;;;4902935;29;20261;-83
2023/12/12 21:55:24;;;;;;;2.45;1.80;;;18.00;65.10;;;;;;4903492;29;20652;-83
2023/12/12 21:57:50;;;;;;;2.92;1.70;;;17.90;65.10;;;;;;4918086;29;20284;-83
2023/12/12 22:00:16;;;;;;;2.17;1.67;;;18.00;64.70;;;;;;4901567;29;20185;-83
2023/12/12 22:02:43;;;;;;;3.63;1.90;;;17.90;65.30;;;;;;4919592;29;20248;-83
2023/12/12 22:05:09;;;;;;;4.95;1.80;;;17.90;65.00;;;;;;4933480;29;20174;-83
2023/12/12 22:07:35;;;;;;;3.38;1.70;;;17.90;65.00;;;;;;4934388;29;20244;-83
2023/12/12 22:10:02;;;;;;;2.67;1.90;;;17.90;65.00;;;;;;4918337;29;20252;-84
2023/12/12 22:12:28;;;;;;;2.38;1.70;;;17.90;65.40;;;;;;4902747;29;20184;-83
2023/12/12 22:14:54;;;;;;;3.70;2.08;;;17.90;65.30;;;;;;4925429;29;20193;-83
2023/12/12 22:17:21;;;;;;;3.30;1.60;;;17.90;65.30;;;;;;4902246;29;20182;-83
2023/12/12 22:19:47;;;;;;;3.17;1.90;;;17.80;65.20;;;;;;4899172;29;20234;-83
2023/12/12 22:22:13;;;;;;;2.92;1.52;;;17.80;65.70;;;;;;4931302;29;20158;-83
2023/12/12 22:24:39;;;;;;;2.47;1.60;;;17.80;65.10;;;;;;4930852;29;20521;-86
2023/12/12 22:27:05;;;;;;;2.78;1.80;;;17.80;65.70;;;;;;4912405;29;20224;-83
2023/12/12 22:29:31;;;;;;;2.85;2.03;;;17.80;65.00;;;;;;4945531;29;20631;-84
2023/12/12 22:31:58;;;;;;;8.68;1.90;;;17.80;65.00;;;;;;4903504;29;20174;-83
2023/12/12 22:34:24;;;;;;;2.92;2.00;;;17.90;65.20;;;;;;4919250;29;20197;-83
2023/12/12 22:36:49;;;;;;;4.43;2.00;;;17.80;64.70;;;;;;4934794;29;20597;-83
2023/12/12 22:39:18;;;;;;;4.28;1.88;;;17.80;65.20;;;;;;4912134;29;20672;-83
2023/12/12 22:41:44;;;;;;;2.45;1.65;;;17.70;65.20;;;;;;4901597;29;20225;-83
2023/12/12 22:44:09;;;;;;;2.25;1.67;;;17.70;65.60;;;;;;4947738;23;20232;-83
2023/12/12 22:46:35;;;;;;;4.38;1.88;;;17.70;65.40;;;;;;4906290;29;20896;-83
2023/12/12 22:49:04;;;;;;;2.10;1.80;;;17.80;65.00;;;;;;4912052;29;20580;-83
2023/12/12 22:51:29;;;;;;;3.72;1.90;;;17.70;65.10;;;;;;4917305;29;20182;-83
2023/12/12 22:53:55;;;;;;;2.55;1.60;;;17.70;65.40;;;;;;4883007;29;20174;-83
2023/12/12 22:56:23;;;;;;;4.03;1.80;;;17.70;65.00;;;;;;4935617;29;20515;-83
2023/12/12 22:58:49;;;;;;;2.72;1.85;;;17.70;65.60;;;;;;4897706;29;20213;-84
2023/12/12 23:01:17;;;;;;;2.55;1.80;;;17.70;65.60;;;;;;4872692;29;20634;-84
2023/12/12 23:03:47;;;;;;;3.22;1.80;;;17.70;65.80;;;;;;4885196;29;20159;-83
2023/12/12 23:06:15;;;;;;;3.83;1.75;;;17.70;65.90;;;;;;4883792;29;20253;-84
2023/12/12 23:08:42;;;;;;;5.50;1.85;;;17.70;65.80;;;;;;4873435;29;20242;-83
2023/12/12 23:11:11;;;;;;;2.60;1.77;;;17.60;65.50;;;;;;4899091;29;20213;-84
2023/12/12 23:13:36;;;;;;;3.42;1.70;;;17.70;65.10;;;;;;4894395;23;20243;-83
2023/12/12 23:16:02;;;;;;;2.15;1.73;;;17.70;65.50;;;;;;4865011;29;20164;-83
2023/12/12 23:18:28;;;;;;;2.42;1.60;;;17.60;65.70;;;;;;4880696;29;20197;-83
2023/12/12 23:20:54;;;;;;;2.25;1.70;;;17.60;65.90;;;;;;4895790;29;20222;-84
2023/12/12 23:23:20;;;;;;;3.72;1.83;;;17.70;65.30;;;;;;4995492;23;20266;-84
2023/12/12 23:25:45;;;;;;;2.33;1.73;;;17.60;65.90;;;;;;4928424;29;20173;-84
2023/12/12 23:28:12;;;;;;;4.22;2.10;;;17.60;65.70;;;;;;4922016;29;20165;-83
2023/12/12 23:30:44;;;;;;;2.83;1.90;;;17.70;65.70;;;;;;4937647;29;20158;-83
2023/12/12 23:33:10;;;;;;;2.53;1.70;;;17.60;65.20;;;;;;4937692;29;20678;-83
2023/12/12 23:38:29;;;;;;;2.22;1.80;;;17.60;65.90;;;;;;5970557;23;20188;-83
2023/12/12 23:40:59;;;;;;;3.78;1.88;;;17.60;65.80;;;;;;4920911;29;20165;-83
2023/12/12 23:43:25;;;;;;;3.58;1.80;;;17.50;66.00;;;;;;4889689;29;20189;-83